sensor_id;sensor_type;location;lat;lon;timestamp;temperature;humidity
21950;DHT22;11139;51.284;7.226;2023-05-07T00:00:16;14.80;99.90
21950;DHT22;11139;51.284;7.226;2023-05-07T00:02:44;14.80;99.90
21950;DHT22;11139;51.284;7.226;2023-05-07T00:05:09;14.80;99.90
21950;DHT22;11139;51.284;7.226;2023-05-07T00:07:35;14.80;99.90
21950;DHT22;11139;51.284;7.226;2023-05-07T00:10:01;14.70;99.90
21950;DHT22;11139;51.284;7.226;2023-05-07T00:12:26;14.80;99.90
21950;DHT22;11139;51.284;7.226;2023-05-07T00:14:52;14.80;99.90
21950;DHT22;11139;51.284;7.226;2023-05-07T00:17:17;14.80;99.90
21950;DHT22;11139;51.284;7.226;2023-05-07T00:19:43;14.70;99.90
21950;DHT22;11139;51.284;7.226;2023-05-07T00:22:08;14.70;99.90
21950;DHT22;11139;51.284;7.226;2023-05-07T00:24:34;14.70;99.90
21950;DHT22;11139;51.284;7.226;2023-05-07T00:26:59;14.80;99.90
21950;DHT22;11139;51.284;7.226;2023-05-07T00:29:25;14.70;99.90
21950;DHT22;11139;51.284;7.226;2023-05-07T00:31:51;14.70;99.90
21950;DHT22;11139;51.284;7.226;2023-05-07T00:34:16;14.70;99.90
21950;DHT22;11139;51.284;7.226;2023-05-07T00:36:42;14.70;99.90
21950;DHT22;11139;51.284;7.226;2023-05-07T00:39:07;14.70;99.90
21950;DHT22;11139;51.284;7.226;2023-05-07T00:41:33;14.70;99.90
21950;DHT22;11139;51.284;7.226;2023-05-07T00:43:58;14.70;99.90
21950;DHT22;11139;51.284;7.226;2023-05-07T00:46:24;14.70;99.90
21950;DHT22;11139;51.284;7.226;2023-05-07T00:48:50;14.70;99.90
21950;DHT22;11139;51.284;7.226;2023-05-07T00:51:16;14.70;99.90
21950;DHT22;11139;51.284;7.226;2023-05-07T00:53:42;14.70;99.90
21950;DHT22;11139;51.284;7.226;2023-05-07T00:56:07;14.70;99.90
21950;DHT22;11139;51.284;7.226;2023-05-07T00:58:33;14.70;99.90
21950;DHT22;11139;51.284;7.226;2023-05-07T01:00:59;14.70;99.90
21950;DHT22;11139;51.284;7.226;2023-05-07T01:03:25;14.60;99.90
21950;DHT22;11139;51.284;7.226;2023-05-07T01:05:50;14.70;99.90
21950;DHT22;11139;51.284;7.226;2023-05-07T01:08:18;14.70;99.90
21950;DHT22;11139;51.284;7.226;2023-05-07T01:10:43;14.70;99.90
21950;DHT22;11139;51.284;7.226;2023-05-07T01:13:10;14.60;99.90
21950;DHT22;11139;51.284;7.226;2023-05-07T01:15:36;14.60;99.90
21950;DHT22;11139;51.284;7.226;2023-05-07T01:18:01;14.60;99.90
21950;DHT22;11139;51.284;7.226;2023-05-07T01:20:27;14.60;99.90
21950;DHT22;11139;51.284;7.226;2023-05-07T01:22:53;14.60;99.90
21950;DHT22;11139;51.284;7.226;2023-05-07T01:25:18;14.60;99.90
21950;DHT22;11139;51.284;7.226;2023-05-07T01:27:44;14.60;99.90
21950;DHT22;11139;51.284;7.226;2023-05-07T01:30:10;14.60;99.90
21950;DHT22;11139;51.284;7.226;2023-05-07T01:32:37;14.60;99.90
21950;DHT22;11139;51.284;7.226;2023-05-07T01:35:05;14.60;99.90
21950;DHT22;11139;51.284;7.226;2023-05-07T01:37:32;14.60;99.90
21950;DHT22;11139;51.284;7.226;2023-05-07T01:39:58;14.60;99.90
21950;DHT22;11139;51.284;7.226;2023-05-07T01:42:23;14.60;99.90
21950;DHT22;11139;51.284;7.226;2023-05-07T01:44:49;14.60;99.90
21950;DHT22;11139;51.284;7.226;2023-05-07T01:47:14;14.60;99.90
21950;DHT22;11139;51.284;7.226;2023-05-07T01:49:41;14.60;99.90
21950;DHT22;11139;51.284;7.226;2023-05-07T01:52:07;14.60;99.90
21950;DHT22;11139;51.284;7.226;2023-05-07T01:54:33;14.60;99.90
21950;DHT22;11139;51.284;7.226;2023-05-07T01:56:58;14.60;99.90
21950;DHT22;11139;51.284;7.226;2023-05-07T01:59:24;14.60;99.90
21950;DHT22;11139;51.284;7.226;2023-05-07T02:01:50;14.60;99.90
21950;DHT22;11139;51.284;7.226;2023-05-07T02:04:15;14.60;99.90
21950;DHT22;11139;51.284;7.226;2023-05-07T02:06:41;14.60;99.90
21950;DHT22;11139;51.284;7.226;2023-05-07T02:09:06;14.60;99.90
21950;DHT22;11139;51.284;7.226;2023-05-07T02:11:34;14.60;99.90
21950;DHT22;11139;51.284;7.226;2023-05-07T02:13:59;14.60;99.90
21950;DHT22;11139;51.284;7.226;2023-05-07T02:16:25;14.50;99.90
21950;DHT22;11139;51.284;7.226;2023-05-07T02:18:50;14.60;99.90
21950;DHT22;11139;51.284;7.226;2023-05-07T02:21:16;14.50;99.90
21950;DHT22;11139;51.284;7.226;2023-05-07T02:23:42;14.50;99.90
21950;DHT22;11139;51.284;7.226;2023-05-07T02:26:07;14.60;99.90
21950;DHT22;11139;51.284;7.226;2023-05-07T02:28:33;14.50;99.90
21950;DHT22;11139;51.284;7.226;2023-05-07T02:31:03;14.50;99.90
21950;DHT22;11139;51.284;7.226;2023-05-07T02:33:29;14.50;99.90
21950;DHT22;11139;51.284;7.226;2023-05-07T02:35:56;14.50;99.90
21950;DHT22;11139;51.284;7.226;2023-05-07T02:38:21;14.50;99.90
21950;DHT22;11139;51.284;7.226;2023-05-07T02:40:47;14.50;99.90
21950;DHT22;11139;51.284;7.226;2023-05-07T02:43:13;14.50;99.90
21950;DHT22;11139;51.284;7.226;2023-05-07T02:45:38;14.50;99.90
21950;DHT22;11139;51.284;7.226;2023-05-07T02:48:04;14.50;99.90
21950;DHT22;11139;51.284;7.226;2023-05-07T02:50:31;14.50;99.90
21950;DHT22;11139;51.284;7.226;2023-05-07T02:52:57;14.40;99.90
21950;DHT22;11139;51.284;7.226;2023-05-07T02:55:23;14.40;99.90
21950;DHT22;11139;51.284;7.226;2023-05-07T02:57:49;14.40;99.90
21950;DHT22;11139;51.284;7.226;2023-05-07T03:00:15;14.40;99.90
21950;DHT22;11139;51.284;7.226;2023-05-07T03:02:41;14.40;99.90
21950;DHT22;11139;51.284;7.226;2023-05-07T03:05:07;14.40;99.90
21950;DHT22;11139;51.284;7.226;2023-05-07T03:07:33;14.40;99.90
21950;DHT22;11139;51.284;7.226;2023-05-07T03:09:59;14.40;99.90
21950;DHT22;11139;51.284;7.226;2023-05-07T03:12:25;14.40;99.90
21950;DHT22;11139;51.284;7.226;2023-05-07T03:14:50;14.40;99.90
21950;DHT22;11139;51.284;7.226;2023-05-07T03:17:16;14.40;99.90
21950;DHT22;11139;51.284;7.226;2023-05-07T03:19:41;14.40;99.90
21950;DHT22;11139;51.284;7.226;2023-05-07T03:22:07;14.40;99.90
21950;DHT22;11139;51.284;7.226;2023-05-07T03:24:32;14.40;99.90
21950;DHT22;11139;51.284;7.226;2023-05-07T03:26:58;14.30;99.90
21950;DHT22;11139;51.284;7.226;2023-05-07T03:29:24;14.30;99.90
21950;DHT22;11139;51.284;7.226;2023-05-07T03:31:49;14.30;99.90
21950;DHT22;11139;51.284;7.226;2023-05-07T03:34:15;14.30;99.90
21950;DHT22;11139;51.284;7.226;2023-05-07T03:36:42;14.30;99.90
21950;DHT22;11139;51.284;7.226;2023-05-07T03:39:07;14.30;99.90
21950;DHT22;11139;51.284;7.226;2023-05-07T03:41:33;14.30;99.90
21950;DHT22;11139;51.284;7.226;2023-05-07T03:43:59;14.30;99.90
21950;DHT22;11139;51.284;7.226;2023-05-07T03:46:24;14.30;99.90
21950;DHT22;11139;51.284;7.226;2023-05-07T03:48:51;14.30;99.90
21950;DHT22;11139;51.284;7.226;2023-05-07T03:51:17;14.30;99.90
21950;DHT22;11139;51.284;7.226;2023-05-07T03:53:42;14.30;99.90
21950;DHT22;11139;51.284;7.226;2023-05-07T03:56:07;14.20;99.90
21950;DHT22;11139;51.284;7.226;2023-05-07T03:58:33;14.30;99.90
21950;DHT22;11139;51.284;7.226;2023-05-07T04:00:59;14.30;99.90
21950;DHT22;11139;51.284;7.226;2023-05-07T04:03:24;14.20;99.90
21950;DHT22;11139;51.284;7.226;2023-05-07T04:05:50;14.20;99.90
21950;DHT22;11139;51.284;7.226;2023-05-07T04:08:15;14.20;99.90
21950;DHT22;11139;51.284;7.226;2023-05-07T04:10:41;14.20;99.90
21950;DHT22;11139;51.284;7.226;2023-05-07T04:13:06;14.20;99.90
21950;DHT22;11139;51.284;7.226;2023-05-07T04:15:32;14.20;99.90
21950;DHT22;11139;51.284;7.226;2023-05-07T04:17:57;14.20;99.90
21950;DHT22;11139;51.284;7.226;2023-05-07T04:20:23;14.20;99.90
21950;DHT22;11139;51.284;7.226;2023-05-07T04:22:48;14.20;99.90
21950;DHT22;11139;51.284;7.226;2023-05-07T04:25:15;14.20;99.90
21950;DHT22;11139;51.284;7.226;2023-05-07T04:27:41;14.20;99.90
21950;DHT22;11139;51.284;7.226;2023-05-07T04:30:06;14.20;99.90
21950;DHT22;11139;51.284;7.226;2023-05-07T04:32:32;14.20;99.90
21950;DHT22;11139;51.284;7.226;2023-05-07T04:34:57;14.20;99.90
21950;DHT22;11139;51.284;7.226;2023-05-07T04:37:23;14.20;99.90
21950;DHT22;11139;51.284;7.226;2023-05-07T04:39:51;14.20;99.90
21950;DHT22;11139;51.284;7.226;2023-05-07T04:42:17;14.10;99.90
21950;DHT22;11139;51.284;7.226;2023-05-07T04:44:43;14.20;99.90
21950;DHT22;11139;51.284;7.226;2023-05-07T04:47:09;14.10;99.90
21950;DHT22;11139;51.284;7.226;2023-05-07T04:49:35;14.20;99.90
21950;DHT22;11139;51.284;7.226;2023-05-07T04:52:00;14.10;99.90
21950;DHT22;11139;51.284;7.226;2023-05-07T04:54:26;14.20;99.90
21950;DHT22;11139;51.284;7.226;2023-05-07T04:56:52;14.10;99.90
21950;DHT22;11139;51.284;7.226;2023-05-07T04:59:17;14.10;99.90
21950;DHT22;11139;51.284;7.226;2023-05-07T05:01:43;14.20;99.90
21950;DHT22;11139;51.284;7.226;2023-05-07T05:04:08;14.10;99.90
21950;DHT22;11139;51.284;7.226;2023-05-07T05:06:34;14.20;99.90
21950;DHT22;11139;51.284;7.226;2023-05-07T05:08:59;14.10;99.90
21950;DHT22;11139;51.284;7.226;2023-05-07T05:11:25;14.10;99.90
21950;DHT22;11139;51.284;7.226;2023-05-07T05:13:51;14.20;99.90
21950;DHT22;11139;51.284;7.226;2023-05-07T05:16:16;14.20;99.90
21950;DHT22;11139;51.284;7.226;2023-05-07T05:18:41;14.20;99.90
21950;DHT22;11139;51.284;7.226;2023-05-07T05:21:07;14.20;99.90
21950;DHT22;11139;51.284;7.226;2023-05-07T05:23:33;14.20;99.90
21950;DHT22;11139;51.284;7.226;2023-05-07T05:25:58;14.20;99.90
21950;DHT22;11139;51.284;7.226;2023-05-07T05:28:24;14.20;99.90
21950;DHT22;11139;51.284;7.226;2023-05-07T05:30:50;14.20;99.90
21950;DHT22;11139;51.284;7.226;2023-05-07T05:33:15;14.20;99.90
21950;DHT22;11139;51.284;7.226;2023-05-07T05:35:41;14.20;99.90
21950;DHT22;11139;51.284;7.226;2023-05-07T05:38:06;14.20;99.90
21950;DHT22;11139;51.284;7.226;2023-05-07T05:40:32;14.20;99.90
21950;DHT22;11139;51.284;7.226;2023-05-07T05:42:58;14.20;99.90
21950;DHT22;11139;51.284;7.226;2023-05-07T05:45:24;14.20;99.90
21950;DHT22;11139;51.284;7.226;2023-05-07T05:47:50;14.20;99.90
21950;DHT22;11139;51.284;7.226;2023-05-07T05:50:15;14.20;99.90
21950;DHT22;11139;51.284;7.226;2023-05-07T05:52:41;14.20;99.90
21950;DHT22;11139;51.284;7.226;2023-05-07T05:55:07;14.20;99.90
21950;DHT22;11139;51.284;7.226;2023-05-07T05:57:33;14.30;99.90
21950;DHT22;11139;51.284;7.226;2023-05-07T05:59:58;14.30;99.90
21950;DHT22;11139;51.284;7.226;2023-05-07T06:02:24;14.30;99.90
21950;DHT22;11139;51.284;7.226;2023-05-07T06:04:49;14.30;99.90
21950;DHT22;11139;51.284;7.226;2023-05-07T06:07:15;14.30;99.90
21950;DHT22;11139;51.284;7.226;2023-05-07T06:09:40;14.30;99.90
21950;DHT22;11139;51.284;7.226;2023-05-07T06:12:06;14.30;99.90
21950;DHT22;11139;51.284;7.226;2023-05-07T06:14:31;14.30;99.90
21950;DHT22;11139;51.284;7.226;2023-05-07T06:16:57;14.30;99.90
21950;DHT22;11139;51.284;7.226;2023-05-07T06:19:23;14.30;99.90
21950;DHT22;11139;51.284;7.226;2023-05-07T06:21:49;14.30;99.90
21950;DHT22;11139;51.284;7.226;2023-05-07T06:24:15;14.30;99.90
21950;DHT22;11139;51.284;7.226;2023-05-07T06:26:40;14.30;99.90
21950;DHT22;11139;51.284;7.226;2023-05-07T06:29:06;14.40;99.90
21950;DHT22;11139;51.284;7.226;2023-05-07T06:31:32;14.40;99.90
21950;DHT22;11139;51.284;7.226;2023-05-07T06:33:57;14.40;99.90
21950;DHT22;11139;51.284;7.226;2023-05-07T06:36:24;14.40;99.90
21950;DHT22;11139;51.284;7.226;2023-05-07T06:38:49;14.40;99.90
21950;DHT22;11139;51.284;7.226;2023-05-07T06:41:15;14.50;99.90
21950;DHT22;11139;51.284;7.226;2023-05-07T06:43:40;14.40;99.90
21950;DHT22;11139;51.284;7.226;2023-05-07T06:46:06;14.40;99.90
21950;DHT22;11139;51.284;7.226;2023-05-07T06:48:31;14.40;99.90
21950;DHT22;11139;51.284;7.226;2023-05-07T06:50:57;14.40;99.90
21950;DHT22;11139;51.284;7.226;2023-05-07T06:53:23;14.50;99.90
21950;DHT22;11139;51.284;7.226;2023-05-07T06:55:48;14.50;99.90
21950;DHT22;11139;51.284;7.226;2023-05-07T06:58:14;14.50;99.90
21950;DHT22;11139;51.284;7.226;2023-05-07T07:00:39;14.50;99.90
21950;DHT22;11139;51.284;7.226;2023-05-07T07:03:06;14.50;99.90
21950;DHT22;11139;51.284;7.226;2023-05-07T07:05:31;14.50;99.90
21950;DHT22;11139;51.284;7.226;2023-05-07T07:07:57;14.50;99.90
21950;DHT22;11139;51.284;7.226;2023-05-07T07:10:23;14.50;99.90
21950;DHT22;11139;51.284;7.226;2023-05-07T07:12:48;14.50;99.90
21950;DHT22;11139;51.284;7.226;2023-05-07T07:15:14;14.50;99.90
21950;DHT22;11139;51.284;7.226;2023-05-07T07:17:40;14.50;99.90
21950;DHT22;11139;51.284;7.226;2023-05-07T07:20:06;14.50;99.90
21950;DHT22;11139;51.284;7.226;2023-05-07T07:22:31;14.50;99.90
21950;DHT22;11139;51.284;7.226;2023-05-07T07:24:57;14.60;99.90
21950;DHT22;11139;51.284;7.226;2023-05-07T07:27:22;14.60;99.90
21950;DHT22;11139;51.284;7.226;2023-05-07T07:29:48;14.50;99.90
21950;DHT22;11139;51.284;7.226;2023-05-07T07:32:14;14.60;99.90
21950;DHT22;11139;51.284;7.226;2023-05-07T07:34:39;14.60;99.90
21950;DHT22;11139;51.284;7.226;2023-05-07T07:37:05;14.60;99.90
21950;DHT22;11139;51.284;7.226;2023-05-07T07:39:31;14.60;99.90
21950;DHT22;11139;51.284;7.226;2023-05-07T07:41:57;14.60;99.90
21950;DHT22;11139;51.284;7.226;2023-05-07T07:44:23;14.60;99.90
21950;DHT22;11139;51.284;7.226;2023-05-07T07:46:48;14.60;99.90
21950;DHT22;11139;51.284;7.226;2023-05-07T07:49:14;14.60;99.90
21950;DHT22;11139;51.284;7.226;2023-05-07T07:51:40;14.60;99.90
21950;DHT22;11139;51.284;7.226;2023-05-07T07:54:05;14.60;99.90
21950;DHT22;11139;51.284;7.226;2023-05-07T07:56:31;14.60;99.90
21950;DHT22;11139;51.284;7.226;2023-05-07T07:58:57;14.60;99.90
21950;DHT22;11139;51.284;7.226;2023-05-07T08:01:22;14.60;99.90
21950;DHT22;11139;51.284;7.226;2023-05-07T08:03:48;14.60;99.90
21950;DHT22;11139;51.284;7.226;2023-05-07T08:06:14;14.60;99.90
21950;DHT22;11139;51.284;7.226;2023-05-07T08:08:39;14.70;99.90
21950;DHT22;11139;51.284;7.226;2023-05-07T08:11:05;14.60;99.90
21950;DHT22;11139;51.284;7.226;2023-05-07T08:13:30;14.70;99.90
21950;DHT22;11139;51.284;7.226;2023-05-07T08:15:56;14.70;99.90
21950;DHT22;11139;51.284;7.226;2023-05-07T08:18:22;14.70;99.90
21950;DHT22;11139;51.284;7.226;2023-05-07T08:20:49;14.70;99.90
21950;DHT22;11139;51.284;7.226;2023-05-07T08:23:15;14.70;99.90
21950;DHT22;11139;51.284;7.226;2023-05-07T08:25:40;14.70;99.90
21950;DHT22;11139;51.284;7.226;2023-05-07T08:28:07;14.70;99.90
21950;DHT22;11139;51.284;7.226;2023-05-07T08:30:33;14.70;99.90
21950;DHT22;11139;51.284;7.226;2023-05-07T08:32:59;14.70;99.90
21950;DHT22;11139;51.284;7.226;2023-05-07T08:35:25;14.70;99.90
21950;DHT22;11139;51.284;7.226;2023-05-07T08:37:51;14.70;99.90
21950;DHT22;11139;51.284;7.226;2023-05-07T08:40:16;14.70;99.90
21950;DHT22;11139;51.284;7.226;2023-05-07T08:42:42;14.80;99.90
21950;DHT22;11139;51.284;7.226;2023-05-07T08:45:08;14.80;99.90
21950;DHT22;11139;51.284;7.226;2023-05-07T08:47:44;14.80;99.90
21950;DHT22;11139;51.284;7.226;2023-05-07T08:50:12;14.80;99.90
21950;DHT22;11139;51.284;7.226;2023-05-07T08:52:41;14.80;99.90
21950;DHT22;11139;51.284;7.226;2023-05-07T08:55:07;14.80;99.90
21950;DHT22;11139;51.284;7.226;2023-05-07T08:57:33;14.80;99.90
21950;DHT22;11139;51.284;7.226;2023-05-07T08:59:59;14.90;99.90
21950;DHT22;11139;51.284;7.226;2023-05-07T09:02:25;14.90;99.90
21950;DHT22;11139;51.284;7.226;2023-05-07T09:04:51;14.90;99.90
21950;DHT22;11139;51.284;7.226;2023-05-07T09:07:16;14.90;99.90
21950;DHT22;11139;51.284;7.226;2023-05-07T09:09:43;14.90;99.90
21950;DHT22;11139;51.284;7.226;2023-05-07T09:12:09;14.90;99.90
21950;DHT22;11139;51.284;7.226;2023-05-07T09:14:35;14.90;99.90
21950;DHT22;11139;51.284;7.226;2023-05-07T09:17:00;14.90;99.90
21950;DHT22;11139;51.284;7.226;2023-05-07T09:19:26;15.00;99.90
21950;DHT22;11139;51.284;7.226;2023-05-07T09:22:02;14.90;99.90
21950;DHT22;11139;51.284;7.226;2023-05-07T09:24:28;14.90;99.90
21950;DHT22;11139;51.284;7.226;2023-05-07T09:26:57;15.00;99.90
21950;DHT22;11139;51.284;7.226;2023-05-07T09:29:23;15.00;99.90
21950;DHT22;11139;51.284;7.226;2023-05-07T09:31:48;15.00;99.90
21950;DHT22;11139;51.284;7.226;2023-05-07T09:34:14;15.00;99.90
21950;DHT22;11139;51.284;7.226;2023-05-07T09:36:39;15.00;99.90
21950;DHT22;11139;51.284;7.226;2023-05-07T09:39:05;15.00;99.90
21950;DHT22;11139;51.284;7.226;2023-05-07T09:41:30;15.00;99.90
21950;DHT22;11139;51.284;7.226;2023-05-07T09:43:57;15.10;99.90
21950;DHT22;11139;51.284;7.226;2023-05-07T09:46:25;15.10;99.90
21950;DHT22;11139;51.284;7.226;2023-05-07T09:48:52;15.10;99.90
21950;DHT22;11139;51.284;7.226;2023-05-07T09:53:47;15.10;99.90
21950;DHT22;11139;51.284;7.226;2023-05-07T09:56:13;15.70;99.90
21950;DHT22;11139;51.284;7.226;2023-05-07T09:58:40;16.20;99.90
21950;DHT22;11139;51.284;7.226;2023-05-07T10:01:06;16.50;99.90
21950;DHT22;11139;51.284;7.226;2023-05-07T10:03:32;17.10;99.90
21950;DHT22;11139;51.284;7.226;2023-05-07T10:05:58;17.60;99.90
21950;DHT22;11139;51.284;7.226;2023-05-07T10:08:24;17.90;99.90
21950;DHT22;11139;51.284;7.226;2023-05-07T10:10:50;18.00;99.90
21950;DHT22;11139;51.284;7.226;2023-05-07T10:13:16;18.00;99.90
21950;DHT22;11139;51.284;7.226;2023-05-07T10:15:42;17.80;99.90
21950;DHT22;11139;51.284;7.226;2023-05-07T10:18:07;17.60;99.90
21950;DHT22;11139;51.284;7.226;2023-05-07T10:20:33;17.80;99.90
21950;DHT22;11139;51.284;7.226;2023-05-07T10:22:59;17.60;99.90
21950;DHT22;11139;51.284;7.226;2023-05-07T10:25:28;17.40;99.90
21950;DHT22;11139;51.284;7.226;2023-05-07T10:27:55;17.30;99.90
21950;DHT22;11139;51.284;7.226;2023-05-07T10:30:26;17.30;99.90
21950;DHT22;11139;51.284;7.226;2023-05-07T10:32:56;17.20;99.90
21950;DHT22;11139;51.284;7.226;2023-05-07T10:35:30;17.20;99.90
21950;DHT22;11139;51.284;7.226;2023-05-07T10:37:57;17.30;99.90
21950;DHT22;11139;51.284;7.226;2023-05-07T10:40:23;17.40;99.90
21950;DHT22;11139;51.284;7.226;2023-05-07T10:42:55;17.40;99.90
21950;DHT22;11139;51.284;7.226;2023-05-07T10:45:22;17.30;99.90
21950;DHT22;11139;51.284;7.226;2023-05-07T10:48:05;17.30;99.90
21950;DHT22;11139;51.284;7.226;2023-05-07T10:50:30;17.40;99.90
21950;DHT22;11139;51.284;7.226;2023-05-07T10:55:40;17.40;99.90
21950;DHT22;11139;51.284;7.226;2023-05-07T11:00:46;17.30;99.90
21950;DHT22;11139;51.284;7.226;2023-05-07T11:03:12;17.30;99.90
21950;DHT22;11139;51.284;7.226;2023-05-07T11:05:38;17.40;99.90
21950;DHT22;11139;51.284;7.226;2023-05-07T11:08:03;17.30;99.90
21950;DHT22;11139;51.284;7.226;2023-05-07T11:13:14;17.20;99.90
21950;DHT22;11139;51.284;7.226;2023-05-07T11:15:44;17.30;99.90
21950;DHT22;11139;51.284;7.226;2023-05-07T11:18:11;17.30;99.90
21950;DHT22;11139;51.284;7.226;2023-05-07T11:20:46;17.20;99.90
21950;DHT22;11139;51.284;7.226;2023-05-07T11:26:00;17.10;99.90
21950;DHT22;11139;51.284;7.226;2023-05-07T11:28:28;17.00;99.90
21950;DHT22;11139;51.284;7.226;2023-05-07T11:30:53;16.90;99.90
21950;DHT22;11139;51.284;7.226;2023-05-07T11:33:19;16.90;99.90
21950;DHT22;11139;51.284;7.226;2023-05-07T11:35:45;16.80;99.90
21950;DHT22;11139;51.284;7.226;2023-05-07T11:38:11;16.80;99.90
21950;DHT22;11139;51.284;7.226;2023-05-07T11:40:53;16.80;99.90
21950;DHT22;11139;51.284;7.226;2023-05-07T11:43:18;16.70;99.90
21950;DHT22;11139;51.284;7.226;2023-05-07T11:45:44;16.60;99.90
21950;DHT22;11139;51.284;7.226;2023-05-07T11:48:10;16.70;99.90
21950;DHT22;11139;51.284;7.226;2023-05-07T11:50:35;16.60;99.90
21950;DHT22;11139;51.284;7.226;2023-05-07T11:53:09;16.60;99.90
21950;DHT22;11139;51.284;7.226;2023-05-07T11:55:34;16.60;99.90
21950;DHT22;11139;51.284;7.226;2023-05-07T11:58:00;16.60;99.90
21950;DHT22;11139;51.284;7.226;2023-05-07T12:00:26;16.50;99.90
21950;DHT22;11139;51.284;7.226;2023-05-07T12:02:51;16.50;99.90
21950;DHT22;11139;51.284;7.226;2023-05-07T12:05:17;16.50;99.90
21950;DHT22;11139;51.284;7.226;2023-05-07T12:07:42;16.50;99.90
21950;DHT22;11139;51.284;7.226;2023-05-07T12:10:08;16.50;99.90
21950;DHT22;11139;51.284;7.226;2023-05-07T12:12:45;16.40;99.90
21950;DHT22;11139;51.284;7.226;2023-05-07T12:15:11;16.40;99.90
21950;DHT22;11139;51.284;7.226;2023-05-07T12:17:36;16.40;99.90
21950;DHT22;11139;51.284;7.226;2023-05-07T12:20:02;16.40;99.90
21950;DHT22;11139;51.284;7.226;2023-05-07T12:22:28;16.40;99.90
21950;DHT22;11139;51.284;7.226;2023-05-07T12:24:57;16.40;99.90
21950;DHT22;11139;51.284;7.226;2023-05-07T12:27:23;16.30;99.90
21950;DHT22;11139;51.284;7.226;2023-05-07T12:29:48;16.30;99.90
21950;DHT22;11139;51.284;7.226;2023-05-07T12:32:15;16.30;99.90
21950;DHT22;11139;51.284;7.226;2023-05-07T12:34:41;16.30;99.90
21950;DHT22;11139;51.284;7.226;2023-05-07T12:37:06;16.30;99.90
21950;DHT22;11139;51.284;7.226;2023-05-07T12:39:32;16.30;99.90
21950;DHT22;11139;51.284;7.226;2023-05-07T12:41:58;16.20;99.90
21950;DHT22;11139;51.284;7.226;2023-05-07T12:44:33;16.20;99.90
21950;DHT22;11139;51.284;7.226;2023-05-07T12:47:02;16.20;99.90
21950;DHT22;11139;51.284;7.226;2023-05-07T12:49:28;16.20;99.90
21950;DHT22;11139;51.284;7.226;2023-05-07T12:51:54;16.20;99.90
21950;DHT22;11139;51.284;7.226;2023-05-07T12:54:29;16.20;99.90
21950;DHT22;11139;51.284;7.226;2023-05-07T12:57:02;16.10;99.90
21950;DHT22;11139;51.284;7.226;2023-05-07T12:59:38;16.20;99.90
21950;DHT22;11139;51.284;7.226;2023-05-07T13:02:04;16.20;99.90
21950;DHT22;11139;51.284;7.226;2023-05-07T13:04:29;16.20;99.90
21950;DHT22;11139;51.284;7.226;2023-05-07T13:06:55;16.20;99.90
21950;DHT22;11139;51.284;7.226;2023-05-07T13:09:20;16.20;99.90
21950;DHT22;11139;51.284;7.226;2023-05-07T13:11:46;16.20;99.90
21950;DHT22;11139;51.284;7.226;2023-05-07T13:14:11;16.20;99.90
21950;DHT22;11139;51.284;7.226;2023-05-07T13:16:37;16.20;99.90
21950;DHT22;11139;51.284;7.226;2023-05-07T13:19:02;16.20;99.90
21950;DHT22;11139;51.284;7.226;2023-05-07T13:21:28;16.20;99.90
21950;DHT22;11139;51.284;7.226;2023-05-07T13:23:55;16.10;99.90
21950;DHT22;11139;51.284;7.226;2023-05-07T13:26:21;16.10;99.90
21950;DHT22;11139;51.284;7.226;2023-05-07T13:28:47;16.10;99.90
21950;DHT22;11139;51.284;7.226;2023-05-07T13:31:13;16.10;99.90
21950;DHT22;11139;51.284;7.226;2023-05-07T13:33:39;16.10;99.90
21950;DHT22;11139;51.284;7.226;2023-05-07T13:36:04;16.10;99.90
21950;DHT22;11139;51.284;7.226;2023-05-07T13:38:30;16.10;99.90
21950;DHT22;11139;51.284;7.226;2023-05-07T13:40:56;16.10;99.90
21950;DHT22;11139;51.284;7.226;2023-05-07T13:43:22;16.10;99.90
21950;DHT22;11139;51.284;7.226;2023-05-07T13:45:47;16.10;99.90
21950;DHT22;11139;51.284;7.226;2023-05-07T13:48:13;16.10;99.90
21950;DHT22;11139;51.284;7.226;2023-05-07T13:50:38;16.00;99.90
21950;DHT22;11139;51.284;7.226;2023-05-07T13:53:04;16.10;99.90
21950;DHT22;11139;51.284;7.226;2023-05-07T13:55:30;16.10;99.90
21950;DHT22;11139;51.284;7.226;2023-05-07T13:57:56;16.00;99.90
21950;DHT22;11139;51.284;7.226;2023-05-07T14:00:22;16.10;99.90
21950;DHT22;11139;51.284;7.226;2023-05-07T14:02:48;16.10;99.90
21950;DHT22;11139;51.284;7.226;2023-05-07T14:05:13;16.10;99.90
21950;DHT22;11139;51.284;7.226;2023-05-07T14:07:39;16.10;99.90
21950;DHT22;11139;51.284;7.226;2023-05-07T14:10:05;16.00;99.90
21950;DHT22;11139;51.284;7.226;2023-05-07T14:12:31;16.10;99.90
21950;DHT22;11139;51.284;7.226;2023-05-07T14:14:57;16.00;99.90
21950;DHT22;11139;51.284;7.226;2023-05-07T14:17:22;16.10;99.90
21950;DHT22;11139;51.284;7.226;2023-05-07T14:19:50;16.00;99.90
21950;DHT22;11139;51.284;7.226;2023-05-07T14:22:16;16.10;99.90
21950;DHT22;11139;51.284;7.226;2023-05-07T14:24:41;16.00;99.90
21950;DHT22;11139;51.284;7.226;2023-05-07T14:27:07;16.00;99.90
21950;DHT22;11139;51.284;7.226;2023-05-07T14:29:32;16.00;99.90
21950;DHT22;11139;51.284;7.226;2023-05-07T14:31:58;16.00;99.90
21950;DHT22;11139;51.284;7.226;2023-05-07T14:34:23;16.10;99.90
21950;DHT22;11139;51.284;7.226;2023-05-07T14:36:49;16.00;99.90
21950;DHT22;11139;51.284;7.226;2023-05-07T14:39:14;16.00;99.90
21950;DHT22;11139;51.284;7.226;2023-05-07T14:41:40;16.10;99.90
21950;DHT22;11139;51.284;7.226;2023-05-07T14:44:05;16.00;99.90
21950;DHT22;11139;51.284;7.226;2023-05-07T14:46:31;16.10;99.90
21950;DHT22;11139;51.284;7.226;2023-05-07T14:48:57;16.10;99.90
21950;DHT22;11139;51.284;7.226;2023-05-07T14:51:22;16.00;99.90
21950;DHT22;11139;51.284;7.226;2023-05-07T14:53:49;16.00;99.90
21950;DHT22;11139;51.284;7.226;2023-05-07T14:56:15;16.00;99.90
21950;DHT22;11139;51.284;7.226;2023-05-07T14:58:40;16.00;99.90
21950;DHT22;11139;51.284;7.226;2023-05-07T15:01:06;16.00;99.90
21950;DHT22;11139;51.284;7.226;2023-05-07T15:03:31;16.00;99.90
21950;DHT22;11139;51.284;7.226;2023-05-07T15:05:57;16.00;99.90
21950;DHT22;11139;51.284;7.226;2023-05-07T15:08:23;16.00;99.90
21950;DHT22;11139;51.284;7.226;2023-05-07T15:10:48;15.90;99.90
21950;DHT22;11139;51.284;7.226;2023-05-07T15:13:14;16.00;99.90
21950;DHT22;11139;51.284;7.226;2023-05-07T15:15:39;15.90;99.90
21950;DHT22;11139;51.284;7.226;2023-05-07T15:18:05;15.90;99.90
21950;DHT22;11139;51.284;7.226;2023-05-07T15:20:30;15.90;99.90
21950;DHT22;11139;51.284;7.226;2023-05-07T15:22:56;15.90;99.90
21950;DHT22;11139;51.284;7.226;2023-05-07T15:25:22;15.90;99.90
21950;DHT22;11139;51.284;7.226;2023-05-07T15:27:48;15.90;99.90
21950;DHT22;11139;51.284;7.226;2023-05-07T15:30:13;15.90;99.90
21950;DHT22;11139;51.284;7.226;2023-05-07T15:32:39;15.80;99.90
21950;DHT22;11139;51.284;7.226;2023-05-07T15:35:06;15.90;99.90